sensor_id;sensor_type;location;lat;lon;timestamp;temperature;humidity
55151;DHT22;41041;43.162;20.538;2023-04-25T00:01:51;332.90;2329.60
55151;DHT22;41041;43.162;20.538;2023-04-25T00:04:16;333.00;2329.60
55151;DHT22;41041;43.162;20.538;2023-04-25T00:06:42;332.90;2329.60
55151;DHT22;41041;43.162;20.538;2023-04-25T00:09:08;332.80;2329.60
55151;DHT22;41041;43.162;20.538;2023-04-25T00:11:35;332.80;2329.60
55151;DHT22;41041;43.162;20.538;2023-04-25T00:14:03;332.80;2329.60
55151;DHT22;41041;43.162;20.538;2023-04-25T00:16:29;332.90;2329.60
55151;DHT22;41041;43.162;20.538;2023-04-25T00:18:59;332.90;2329.60
55151;DHT22;41041;43.162;20.538;2023-04-25T00:21:25;332.80;2329.60
55151;DHT22;41041;43.162;20.538;2023-04-25T00:26:19;333.20;2329.60
55151;DHT22;41041;43.162;20.538;2023-04-25T00:28:47;332.80;2329.60
55151;DHT22;41041;43.162;20.538;2023-04-25T00:31:13;332.80;2329.60
55151;DHT22;41041;43.162;20.538;2023-04-25T00:33:39;332.80;2329.60
55151;DHT22;41041;43.162;20.538;2023-04-25T00:36:05;332.90;2329.60
55151;DHT22;41041;43.162;20.538;2023-04-25T00:38:31;332.80;2329.60
55151;DHT22;41041;43.162;20.538;2023-04-25T00:40:57;332.80;2329.60
55151;DHT22;41041;43.162;20.538;2023-04-25T00:43:26;332.80;2329.60
55151;DHT22;41041;43.162;20.538;2023-04-25T00:45:52;332.80;2329.60
55151;DHT22;41041;43.162;20.538;2023-04-25T00:48:21;332.80;2329.60
55151;DHT22;41041;43.162;20.538;2023-04-25T00:50:54;332.80;2329.60
55151;DHT22;41041;43.162;20.538;2023-04-25T00:53:25;332.80;2329.60
55151;DHT22;41041;43.162;20.538;2023-04-25T00:55:52;332.90;2329.60
55151;DHT22;41041;43.162;20.538;2023-04-25T00:58:19;332.80;2329.60
55151;DHT22;41041;43.162;20.538;2023-04-25T01:00:46;332.80;2329.60
55151;DHT22;41041;43.162;20.538;2023-04-25T01:03:21;332.80;2329.60
55151;DHT22;41041;43.162;20.538;2023-04-25T01:05:59;332.80;2329.60
55151;DHT22;41041;43.162;20.538;2023-04-25T01:08:25;332.80;2329.60
55151;DHT22;41041;43.162;20.538;2023-04-25T01:10:51;308.10;2304.00
55151;DHT22;41041;43.162;20.538;2023-04-25T01:13:17;308.10;2304.00
55151;DHT22;41041;43.162;20.538;2023-04-25T01:15:43;308.10;2304.00
55151;DHT22;41041;43.162;20.538;2023-04-25T01:18:09;308.10;2304.00
55151;DHT22;41041;43.162;20.538;2023-04-25T01:20:37;308.00;2304.00
55151;DHT22;41041;43.162;20.538;2023-04-25T01:23:07;308.10;2304.00
55151;DHT22;41041;43.162;20.538;2023-04-25T01:25:33;308.10;2304.00
55151;DHT22;41041;43.162;20.538;2023-04-25T01:28:01;308.10;2304.00
55151;DHT22;41041;43.162;20.538;2023-04-25T01:30:27;308.10;2304.00
55151;DHT22;41041;43.162;20.538;2023-04-25T01:32:56;308.10;2304.00
55151;DHT22;41041;43.162;20.538;2023-04-25T01:35:23;308.10;2304.00
55151;DHT22;41041;43.162;20.538;2023-04-25T01:37:49;308.00;2304.00
55151;DHT22;41041;43.162;20.538;2023-04-25T01:40:15;308.00;2304.00
55151;DHT22;41041;43.162;20.538;2023-04-25T01:42:42;308.00;2304.00
55151;DHT22;41041;43.162;20.538;2023-04-25T01:45:10;308.00;2304.00
55151;DHT22;41041;43.162;20.538;2023-04-25T01:47:36;308.00;2304.00
55151;DHT22;41041;43.162;20.538;2023-04-25T01:50:03;308.00;2304.00
55151;DHT22;41041;43.162;20.538;2023-04-25T01:52:30;308.00;2304.00
55151;DHT22;41041;43.162;20.538;2023-04-25T01:54:57;308.00;2304.00
55151;DHT22;41041;43.162;20.538;2023-04-25T01:57:23;308.00;2304.00
55151;DHT22;41041;43.162;20.538;2023-04-25T01:59:49;308.00;2304.00
55151;DHT22;41041;43.162;20.538;2023-04-25T02:02:15;308.10;2304.00
55151;DHT22;41041;43.162;20.538;2023-04-25T02:04:41;307.90;2304.00
55151;DHT22;41041;43.162;20.538;2023-04-25T02:07:07;308.00;2304.00
55151;DHT22;41041;43.162;20.538;2023-04-25T02:09:47;308.00;2304.00
55151;DHT22;41041;43.162;20.538;2023-04-25T02:12:13;308.00;2304.00
55151;DHT22;41041;43.162;20.538;2023-04-25T02:14:39;332.80;2329.60
55151;DHT22;41041;43.162;20.538;2023-04-25T02:17:07;308.10;2304.00
55151;DHT22;41041;43.162;20.538;2023-04-25T02:19:33;308.00;2304.00
55151;DHT22;41041;43.162;20.538;2023-04-25T02:21:59;308.10;2304.00
55151;DHT22;41041;43.162;20.538;2023-04-25T02:24:25;308.10;2304.00
55151;DHT22;41041;43.162;20.538;2023-04-25T02:26:51;308.10;2304.00
55151;DHT22;41041;43.162;20.538;2023-04-25T02:29:16;308.00;2304.00
55151;DHT22;41041;43.162;20.538;2023-04-25T02:31:42;308.00;2304.00
55151;DHT22;41041;43.162;20.538;2023-04-25T02:34:08;308.00;2304.00
55151;DHT22;41041;43.162;20.538;2023-04-25T02:36:34;308.00;2304.00
55151;DHT22;41041;43.162;20.538;2023-04-25T02:39:01;308.00;2304.00
55151;DHT22;41041;43.162;20.538;2023-04-25T02:41:28;308.00;2304.00
55151;DHT22;41041;43.162;20.538;2023-04-25T02:43:54;308.10;2304.00
55151;DHT22;41041;43.162;20.538;2023-04-25T02:46:20;308.00;2304.00
55151;DHT22;41041;43.162;20.538;2023-04-25T02:48:46;308.00;2304.00
55151;DHT22;41041;43.162;20.538;2023-04-25T02:51:12;308.00;2304.00
55151;DHT22;41041;43.162;20.538;2023-04-25T02:53:38;308.00;2304.00
55151;DHT22;41041;43.162;20.538;2023-04-25T02:56:04;308.00;2304.00
55151;DHT22;41041;43.162;20.538;2023-04-25T02:58:30;308.00;2304.00
55151;DHT22;41041;43.162;20.538;2023-04-25T03:00:55;308.00;2304.00
55151;DHT22;41041;43.162;20.538;2023-04-25T03:03:48;308.00;2304.00
55151;DHT22;41041;43.162;20.538;2023-04-25T03:06:14;308.00;2304.00
55151;DHT22;41041;43.162;20.538;2023-04-25T03:08:41;307.90;2304.00
55151;DHT22;41041;43.162;20.538;2023-04-25T03:11:07;307.90;2304.00
55151;DHT22;41041;43.162;20.538;2023-04-25T03:13:32;307.90;2304.00
55151;DHT22;41041;43.162;20.538;2023-04-25T03:15:58;307.90;2304.00
55151;DHT22;41041;43.162;20.538;2023-04-25T03:18:24;307.90;2304.00
55151;DHT22;41041;43.162;20.538;2023-04-25T03:20:50;307.90;2304.00
55151;DHT22;41041;43.162;20.538;2023-04-25T03:23:16;307.90;2304.00
55151;DHT22;41041;43.162;20.538;2023-04-25T03:25:49;307.90;2304.00
55151;DHT22;41041;43.162;20.538;2023-04-25T03:28:15;307.90;2304.00
55151;DHT22;41041;43.162;20.538;2023-04-25T03:30:41;307.80;2304.00
55151;DHT22;41041;43.162;20.538;2023-04-25T03:33:12;307.80;2304.00
55151;DHT22;41041;43.162;20.538;2023-04-25T03:35:38;307.70;2304.00
55151;DHT22;41041;43.162;20.538;2023-04-25T03:38:04;307.70;2304.00
55151;DHT22;41041;43.162;20.538;2023-04-25T03:40:29;307.70;2304.00
55151;DHT22;41041;43.162;20.538;2023-04-25T03:42:55;307.70;2304.00
55151;DHT22;41041;43.162;20.538;2023-04-25T03:45:21;307.70;2304.00
55151;DHT22;41041;43.162;20.538;2023-04-25T03:47:58;307.70;2304.00
55151;DHT22;41041;43.162;20.538;2023-04-25T03:50:23;307.60;2304.00
55151;DHT22;41041;43.162;20.538;2023-04-25T03:52:49;307.70;2304.00
55151;DHT22;41041;43.162;20.538;2023-04-25T03:55:20;307.60;2304.00
55151;DHT22;41041;43.162;20.538;2023-04-25T03:57:46;307.60;2304.00
55151;DHT22;41041;43.162;20.538;2023-04-25T04:00:13;307.60;2304.00
55151;DHT22;41041;43.162;20.538;2023-04-25T04:02:39;307.70;2304.00
55151;DHT22;41041;43.162;20.538;2023-04-25T04:05:06;307.70;2304.00
55151;DHT22;41041;43.162;20.538;2023-04-25T04:07:32;307.70;2304.00
55151;DHT22;41041;43.162;20.538;2023-04-25T04:09:59;307.70;2304.00
55151;DHT22;41041;43.162;20.538;2023-04-25T04:12:25;307.80;2304.00
55151;DHT22;41041;43.162;20.538;2023-04-25T04:14:50;307.80;2304.00
55151;DHT22;41041;43.162;20.538;2023-04-25T04:17:16;307.80;2304.00
55151;DHT22;41041;43.162;20.538;2023-04-25T04:19:50;307.90;2304.00
55151;DHT22;41041;43.162;20.538;2023-04-25T04:22:16;307.90;2304.00
55151;DHT22;41041;43.162;20.538;2023-04-25T04:24:42;307.90;2304.00
55151;DHT22;41041;43.162;20.538;2023-04-25T04:27:09;307.90;2304.00
55151;DHT22;41041;43.162;20.538;2023-04-25T04:29:35;307.90;2304.00
55151;DHT22;41041;43.162;20.538;2023-04-25T04:32:02;308.00;2304.00
55151;DHT22;41041;43.162;20.538;2023-04-25T04:34:28;308.00;2304.00
55151;DHT22;41041;43.162;20.538;2023-04-25T04:36:54;307.90;2304.00
55151;DHT22;41041;43.162;20.538;2023-04-25T04:39:20;308.00;2304.00
55151;DHT22;41041;43.162;20.538;2023-04-25T04:41:46;308.00;2304.00
55151;DHT22;41041;43.162;20.538;2023-04-25T04:44:12;307.90;2304.00
55151;DHT22;41041;43.162;20.538;2023-04-25T04:46:39;307.90;2304.00
55151;DHT22;41041;43.162;20.538;2023-04-25T04:49:06;307.90;2304.00
55151;DHT22;41041;43.162;20.538;2023-04-25T04:51:32;308.00;2304.00
55151;DHT22;41041;43.162;20.538;2023-04-25T04:53:58;308.00;2304.00
55151;DHT22;41041;43.162;20.538;2023-04-25T04:56:28;308.00;2304.00
55151;DHT22;41041;43.162;20.538;2023-04-25T04:58:55;308.00;2304.00
55151;DHT22;41041;43.162;20.538;2023-04-25T05:04:27;308.10;2304.00
55151;DHT22;41041;43.162;20.538;2023-04-25T05:06:52;308.00;2304.00
55151;DHT22;41041;43.162;20.538;2023-04-25T05:09:19;308.00;2304.00
55151;DHT22;41041;43.162;20.538;2023-04-25T05:11:45;308.10;2304.00
55151;DHT22;41041;43.162;20.538;2023-04-25T05:14:11;308.10;2304.00
55151;DHT22;41041;43.162;20.538;2023-04-25T05:16:37;308.10;2304.00
55151;DHT22;41041;43.162;20.538;2023-04-25T05:19:02;308.10;2304.00
55151;DHT22;41041;43.162;20.538;2023-04-25T05:21:28;308.00;2304.00
55151;DHT22;41041;43.162;20.538;2023-04-25T05:23:55;308.00;2304.00
55151;DHT22;41041;43.162;20.538;2023-04-25T05:26:21;308.10;2304.00
55151;DHT22;41041;43.162;20.538;2023-04-25T05:28:47;308.10;2304.00
55151;DHT22;41041;43.162;20.538;2023-04-25T05:31:13;332.80;2329.60
55151;DHT22;41041;43.162;20.538;2023-04-25T05:33:39;332.80;2329.60
55151;DHT22;41041;43.162;20.538;2023-04-25T05:36:05;332.80;2329.60
55151;DHT22;41041;43.162;20.538;2023-04-25T05:38:31;332.90;2329.60
55151;DHT22;41041;43.162;20.538;2023-04-25T05:40:57;333.00;2329.60
55151;DHT22;41041;43.162;20.538;2023-04-25T05:43:23;332.90;2329.60
55151;DHT22;41041;43.162;20.538;2023-04-25T05:45:49;332.90;2329.60
55151;DHT22;41041;43.162;20.538;2023-04-25T05:48:15;333.00;2329.60
55151;DHT22;41041;43.162;20.538;2023-04-25T05:50:41;333.00;2329.60
55151;DHT22;41041;43.162;20.538;2023-04-25T05:53:07;333.00;2329.60
55151;DHT22;41041;43.162;20.538;2023-04-25T05:55:40;332.90;2329.60
55151;DHT22;41041;43.162;20.538;2023-04-25T05:58:06;333.00;2329.60
55151;DHT22;41041;43.162;20.538;2023-04-25T06:00:32;333.00;2329.60
55151;DHT22;41041;43.162;20.538;2023-04-25T06:05:24;333.50;2329.60
55151;DHT22;41041;43.162;20.538;2023-04-25T06:07:50;333.50;2329.60
55151;DHT22;41041;43.162;20.538;2023-04-25T06:10:16;333.30;2329.60
55151;DHT22;41041;43.162;20.538;2023-04-25T06:12:49;333.40;2329.60
55151;DHT22;41041;43.162;20.538;2023-04-25T06:57:00;359.20;2329.60
55151;DHT22;41041;43.162;20.538;2023-04-25T06:59:26;359.10;2329.60
55151;DHT22;41041;43.162;20.538;2023-04-25T07:01:52;384.00;2329.60
55151;DHT22;41041;43.162;20.538;2023-04-25T07:04:18;359.20;2329.60
55151;DHT22;41041;43.162;20.538;2023-04-25T07:06:44;384.00;2329.60
55151;DHT22;41041;43.162;20.538;2023-04-25T07:09:10;384.20;2329.60
55151;DHT22;41041;43.162;20.538;2023-04-25T07:11:36;384.40;2329.60
55151;DHT22;41041;43.162;20.538;2023-04-25T07:14:02;384.10;2329.60
55151;DHT22;41041;43.162;20.538;2023-04-25T07:16:28;384.40;2329.60
55151;DHT22;41041;43.162;20.538;2023-04-25T07:18:55;384.70;2329.60
55151;DHT22;41041;43.162;20.538;2023-04-25T07:21:21;384.60;2329.60
55151;DHT22;41041;43.162;20.538;2023-04-25T07:23:47;384.60;2329.60
55151;DHT22;41041;43.162;20.538;2023-04-25T07:26:19;384.60;2329.60
55151;DHT22;41041;43.162;20.538;2023-04-25T07:28:45;384.60;2329.60
55151;DHT22;41041;43.162;20.538;2023-04-25T07:31:15;384.70;2329.60
55151;DHT22;41041;43.162;20.538;2023-04-25T07:33:44;384.60;2329.60
55151;DHT22;41041;43.162;20.538;2023-04-25T07:36:10;384.70;2329.60
55151;DHT22;41041;43.162;20.538;2023-04-25T07:38:36;384.60;2329.60
55151;DHT22;41041;43.162;20.538;2023-04-25T07:41:02;384.70;2329.60
55151;DHT22;41041;43.162;20.538;2023-04-25T07:43:28;384.80;2329.60
55151;DHT22;41041;43.162;20.538;2023-04-25T07:45:54;409.60;2355.20
55151;DHT22;41041;43.162;20.538;2023-04-25T07:48:20;384.90;2329.60
55151;DHT22;41041;43.162;20.538;2023-04-25T07:50:46;409.60;2355.20
55151;DHT22;41041;43.162;20.538;2023-04-25T07:53:11;409.70;2355.20
55151;DHT22;41041;43.162;20.538;2023-04-25T07:55:38;409.70;2355.20
55151;DHT22;41041;43.162;20.538;2023-04-25T07:58:08;409.60;2355.20
55151;DHT22;41041;43.162;20.538;2023-04-25T08:00:35;409.60;2355.20
55151;DHT22;41041;43.162;20.538;2023-04-25T08:03:01;409.60;2355.20
55151;DHT22;41041;43.162;20.538;2023-04-25T08:05:28;409.80;2355.20
55151;DHT22;41041;43.162;20.538;2023-04-25T08:07:54;410.00;2355.20
55151;DHT22;41041;43.162;20.538;2023-04-25T08:10:22;410.30;2355.20
55151;DHT22;41041;43.162;20.538;2023-04-25T11:14:30;358.50;2329.60
55151;DHT22;41041;43.162;20.538;2023-04-25T11:58:33;332.80;2329.60
55151;DHT22;41041;43.162;20.538;2023-04-25T21:45:15;307.80;2304.00
55151;DHT22;41041;43.162;20.538;2023-04-25T21:47:41;307.50;2304.00
55151;DHT22;41041;43.162;20.538;2023-04-25T21:50:07;307.40;2304.00
55151;DHT22;41041;43.162;20.538;2023-04-25T21:52:34;307.40;2304.00
55151;DHT22;41041;43.162;20.538;2023-04-25T21:57:27;307.70;2304.00
55151;DHT22;41041;43.162;20.538;2023-04-25T21:59:53;307.40;2304.00
55151;DHT22;41041;43.162;20.538;2023-04-25T22:02:25;307.50;2304.00
55151;DHT22;41041;43.162;20.538;2023-04-25T22:04:52;307.50;2304.00
55151;DHT22;41041;43.162;20.538;2023-04-25T22:07:17;307.40;2304.00
55151;DHT22;41041;43.162;20.538;2023-04-25T22:09:43;307.40;2304.00
55151;DHT22;41041;43.162;20.538;2023-04-25T22:12:09;307.20;2304.00
55151;DHT22;41041;43.162;20.538;2023-04-25T22:14:35;307.30;2304.00
55151;DHT22;41041;43.162;20.538;2023-04-25T22:17:06;307.20;2304.00
55151;DHT22;41041;43.162;20.538;2023-04-25T22:19:32;307.20;2304.00
55151;DHT22;41041;43.162;20.538;2023-04-25T22:21:57;307.20;2304.00
55151;DHT22;41041;43.162;20.538;2023-04-25T22:24:23;307.20;2304.00
55151;DHT22;41041;43.162;20.538;2023-04-25T22:26:55;307.20;2304.00
55151;DHT22;41041;43.162;20.538;2023-04-25T22:29:20;307.30;2304.00
55151;DHT22;41041;43.162;20.538;2023-04-25T22:31:46;307.30;2304.00
55151;DHT22;41041;43.162;20.538;2023-04-25T22:34:12;307.20;2304.00
55151;DHT22;41041;43.162;20.538;2023-04-25T22:36:39;307.20;2304.00
55151;DHT22;41041;43.162;20.538;2023-04-25T22:39:04;307.30;2304.00
55151;DHT22;41041;43.162;20.538;2023-04-25T22:41:30;307.40;2304.00
55151;DHT22;41041;43.162;20.538;2023-04-25T22:43:56;307.40;2304.00
55151;DHT22;41041;43.162;20.538;2023-04-25T22:46:22;307.40;2304.00
55151;DHT22;41041;43.162;20.538;2023-04-25T22:48:49;307.40;2304.00
55151;DHT22;41041;43.162;20.538;2023-04-25T22:51:14;307.40;2304.00
55151;DHT22;41041;43.162;20.538;2023-04-25T22:53:40;307.40;2304.00
55151;DHT22;41041;43.162;20.538;2023-04-25T22:56:07;307.40;2304.00
55151;DHT22;41041;43.162;20.538;2023-04-25T22:58:34;307.40;2304.00
55151;DHT22;41041;43.162;20.538;2023-04-25T23:01:02;307.40;2304.00
55151;DHT22;41041;43.162;20.538;2023-04-25T23:03:28;307.40;2304.00
55151;DHT22;41041;43.162;20.538;2023-04-25T23:05:54;307.40;2304.00
55151;DHT22;41041;43.162;20.538;2023-04-25T23:08:19;307.40;2304.00
55151;DHT22;41041;43.162;20.538;2023-04-25T23:10:46;307.40;2304.00
55151;DHT22;41041;43.162;20.538;2023-04-25T23:13:12;307.40;2304.00
55151;DHT22;41041;43.162;20.538;2023-04-25T23:15:38;307.40;2304.00
55151;DHT22;41041;43.162;20.538;2023-04-25T23:18:04;307.40;2304.00
55151;DHT22;41041;43.162;20.538;2023-04-25T23:20:30;307.40;2304.00
55151;DHT22;41041;43.162;20.538;2023-04-25T23:22:56;307.40;2304.00
55151;DHT22;41041;43.162;20.538;2023-04-25T23:25:23;307.30;2304.00
55151;DHT22;41041;43.162;20.538;2023-04-25T23:27:50;307.30;2304.00
55151;DHT22;41041;43.162;20.538;2023-04-25T23:30:16;307.20;2304.00
55151;DHT22;41041;43.162;20.538;2023-04-25T23:32:42;307.20;2304.00
55151;DHT22;41041;43.162;20.538;2023-04-25T23:35:08;307.20;2304.00
55151;DHT22;41041;43.162;20.538;2023-04-25T23:37:35;307.20;2304.00
55151;DHT22;41041;43.162;20.538;2023-04-25T23:40:10;282.50;2278.40
55151;DHT22;41041;43.162;20.538;2023-04-25T23:42:37;282.50;2278.40
55151;DHT22;41041;43.162;20.538;2023-04-25T23:45:04;307.20;2304.00
55151;DHT22;41041;43.162;20.538;2023-04-25T23:47:31;307.20;2304.00
55151;DHT22;41041;43.162;20.538;2023-04-25T23:49:57;307.30;2304.00
55151;DHT22;41041;43.162;20.538;2023-04-25T23:52:22;307.20;2304.00
55151;DHT22;41041;43.162;20.538;2023-04-25T23:54:49;307.20;2304.00
55151;DHT22;41041;43.162;20.538;2023-04-25T23:57:14;307.20;2304.00
55151;DHT22;41041;43.162;20.538;2023-04-25T23:59:44;307.20;2304.00
